AWE1080 KABQ-KSNA
Flight info
| Callsign | AWE1080 |
|---|---|
| Flight time | N/A |
| Altitude | 34000 |
| Route | RDRNR3 ZUN HIMDU DSNEE6 |
| Aircraft | B752/M-SDE2E3FGHIJ3J4J7RWXY/LB1 |
Departure
| Time | 2025-10-28 03:44 |
|---|---|
| Airport | Albuquerque International Sunport (KABQ) |
Arrival
| Time | N/A |
|---|---|
| Airport | John Wayne Orange County International Airport (KSNA) |
| Time | Latitude | Longitude | Altitude | Speed | Heading |
|---|---|---|---|---|---|
| 2025-10-28 03:19 | 35.04684 | -106.61540 | 5323 ft | 0 kts | 11° |
| 2025-10-28 03:32 | 35.04663 | -106.61546 | 5323 ft | 3 kts | 24° |
| 2025-10-28 03:32 | 35.04633 | -106.61581 | 5322 ft | 4 kts | 49° |
| 2025-10-28 03:33 | 35.04588 | -106.61619 | 5322 ft | 4 kts | 37° |
| 2025-10-28 03:33 | 35.04570 | -106.61647 | 5321 ft | 0 kts | 78° |
| 2025-10-28 03:34 | 35.04574 | -106.61689 | 5321 ft | 1 kts | 100° |
| 2025-10-28 03:35 | 35.04575 | -106.61702 | 5321 ft | 0 kts | 89° |
| 2025-10-28 03:37 | 35.04577 | -106.61637 | 5321 ft | 0 kts | 88° |
| 2025-10-28 03:38 | 35.04584 | -106.61311 | 5324 ft | 28 kts | 88° |
| 2025-10-28 03:38 | 35.04573 | -106.60750 | 5327 ft | 35 kts | 92° |
| 2025-10-28 03:39 | 35.04584 | -106.60270 | 5329 ft | 24 kts | 94° |
| 2025-10-28 03:39 | 35.04580 | -106.59901 | 5330 ft | 19 kts | 83° |
| 2025-10-28 03:40 | 35.04586 | -106.59264 | 5335 ft | 36 kts | 89° |
| 2025-10-28 03:40 | 35.04579 | -106.58524 | 5343 ft | 37 kts | 89° |
| 2025-10-28 03:41 | 35.04577 | -106.57958 | 5351 ft | 27 kts | 89° |
| 2025-10-28 03:41 | 35.04548 | -106.57602 | 5355 ft | 14 kts | 139° |
| 2025-10-28 03:42 | 35.04413 | -106.57627 | 5355 ft | 8 kts | 248° |
| 2025-10-28 03:42 | 35.04405 | -106.57909 | 5352 ft | 59 kts | 270° |
| 2025-10-28 03:43 | 35.04425 | -106.60057 | 5352 ft | 175 kts | 271° |
| 2025-10-28 03:43 | 35.04446 | -106.63182 | 6048 ft | 191 kts | 274° |
| 2025-10-28 03:44 | 35.04550 | -106.66421 | 7298 ft | 200 kts | 268° |
| 2025-10-28 03:44 | 35.04446 | -106.70087 | 8264 ft | 234 kts | 271° |
| 2025-10-28 03:45 | 35.04408 | -106.74264 | 9588 ft | 257 kts | 273° |
| 2025-10-28 03:45 | 35.04393 | -106.78835 | 10743 ft | 285 kts | 272° |
| 2025-10-28 03:46 | 35.04462 | -106.83958 | 11521 ft | 321 kts | 275° |
| 2025-10-28 03:46 | 35.04662 | -106.89474 | 12933 ft | 330 kts | 275° |
| 2025-10-28 03:47 | 35.04756 | -106.92277 | 13731 ft | 332 kts | 274° |
| 2025-10-28 03:47 | 35.04608 | -106.97938 | 15164 ft | 337 kts | 271° |
| 2025-10-28 03:48 | 35.04358 | -107.06564 | 17258 ft | 344 kts | 271° |
| 2025-10-28 03:48 | 35.04187 | -107.12389 | 18601 ft | 350 kts | 271° |
| 2025-10-28 03:49 | 35.04009 | -107.18308 | 20010 ft | 351 kts | 271° |
| 2025-10-28 03:49 | 35.03827 | -107.24283 | 21281 ft | 356 kts | 271° |
| 2025-10-28 03:50 | 35.03640 | -107.30341 | 22510 ft | 360 kts | 271° |
| 2025-10-28 03:50 | 35.03452 | -107.36477 | 23570 ft | 368 kts | 271° |
| 2025-10-28 03:51 | 35.03355 | -107.39592 | 24236 ft | 368 kts | 271° |
| 2025-10-28 03:53 | 35.02408 | -107.68729 | 28329 ft | 397 kts | 272° |
| 2025-10-28 03:55 | 35.01577 | -107.92677 | 31136 ft | 413 kts | 272° |
| 2025-10-28 03:57 | 35.00412 | -108.24142 | 34352 ft | 407 kts | 271° |
| 2025-10-28 03:59 | 34.99471 | -108.48083 | 34364 ft | 405 kts | 272° |
| 2025-10-28 04:01 | 34.98188 | -108.78999 | 34339 ft | 408 kts | 270° |
| 2025-10-28 04:03 | 34.97128 | -109.03204 | 34302 ft | 408 kts | 270° |
| 2025-10-28 04:05 | 34.95089 | -109.30889 | 34295 ft | 411 kts | 267° |
| 2025-10-28 04:07 | 34.92028 | -109.62068 | 34276 ft | 414 kts | 267° |
| 2025-10-28 04:09 | 34.89582 | -109.86426 | 34272 ft | 414 kts | 267° |
| 2025-10-28 04:11 | 34.86713 | -110.14362 | 34270 ft | 417 kts | 266° |
| 2025-10-28 04:13 | 34.83412 | -110.45752 | 34270 ft | 419 kts | 266° |
| 2025-10-28 04:15 | 34.80387 | -110.73849 | 34269 ft | 421 kts | 265° |
| 2025-10-28 04:17 | 34.77301 | -111.01887 | 34285 ft | 421 kts | 265° |
| 2025-10-28 04:19 | 34.74550 | -111.26385 | 34287 ft | 419 kts | 265° |
| 2025-10-28 04:21 | 34.70925 | -111.57998 | 34223 ft | 423 kts | 265° |
| 2025-10-28 04:23 | 34.68035 | -111.82686 | 34172 ft | 423 kts | 265° |
| 2025-10-28 04:25 | 34.64246 | -112.14407 | 34189 ft | 424 kts | 265° |
| 2025-10-28 04:27 | 34.60805 | -112.42616 | 34196 ft | 423 kts | 265° |
| 2025-10-28 04:29 | 34.57280 | -112.70947 | 34212 ft | 428 kts | 264° |
| 2025-10-28 04:31 | 34.53679 | -112.99328 | 34161 ft | 427 kts | 264° |